sensor_id;sensor_type;location;lat;lon;timestamp;temperature;humidity
70801;DHT22;59616;52.170;5.386;2022-08-19T00:01:59;19.20;79.40
70801;DHT22;59616;52.170;5.386;2022-08-19T00:04:32;19.30;79.60
70801;DHT22;59616;52.170;5.386;2022-08-19T00:07:01;19.20;79.60
70801;DHT22;59616;52.170;5.386;2022-08-19T00:09:28;19.20;79.50
70801;DHT22;59616;52.170;5.386;2022-08-19T00:11:56;19.20;79.60
70801;DHT22;59616;52.170;5.386;2022-08-19T00:14:27;19.20;79.70
70801;DHT22;59616;52.170;5.386;2022-08-19T00:16:56;19.20;79.70
70801;DHT22;59616;52.170;5.386;2022-08-19T00:19:23;19.20;79.70
70801;DHT22;59616;52.170;5.386;2022-08-19T00:21:51;19.10;79.70
70801;DHT22;59616;52.170;5.386;2022-08-19T00:24:18;19.10;80.00
70801;DHT22;59616;52.170;5.386;2022-08-19T00:26:46;19.00;80.10
70801;DHT22;59616;52.170;5.386;2022-08-19T00:29:15;19.10;80.30
70801;DHT22;59616;52.170;5.386;2022-08-19T00:31:43;19.00;80.40
70801;DHT22;59616;52.170;5.386;2022-08-19T00:34:10;19.10;80.40
70801;DHT22;59616;52.170;5.386;2022-08-19T00:36:39;19.10;80.40
70801;DHT22;59616;52.170;5.386;2022-08-19T00:39:06;19.00;80.30
70801;DHT22;59616;52.170;5.386;2022-08-19T00:41:33;19.00;80.20
70801;DHT22;59616;52.170;5.386;2022-08-19T00:44:05;19.00;80.20
70801;DHT22;59616;52.170;5.386;2022-08-19T00:46:33;19.00;80.30
70801;DHT22;59616;52.170;5.386;2022-08-19T00:49:02;19.00;80.40
70801;DHT22;59616;52.170;5.386;2022-08-19T00:51:33;18.90;80.30
70801;DHT22;59616;52.170;5.386;2022-08-19T00:54:00;18.90;80.30
70801;DHT22;59616;52.170;5.386;2022-08-19T00:56:28;18.90;80.40
70801;DHT22;59616;52.170;5.386;2022-08-19T00:58:56;18.90;80.50
70801;DHT22;59616;52.170;5.386;2022-08-19T01:01:24;18.80;80.40
70801;DHT22;59616;52.170;5.386;2022-08-19T01:03:51;18.90;80.50
70801;DHT22;59616;52.170;5.386;2022-08-19T01:06:25;18.80;80.40
70801;DHT22;59616;52.170;5.386;2022-08-19T01:08:54;18.80;80.40
70801;DHT22;59616;52.170;5.386;2022-08-19T01:11:21;18.80;80.40
70801;DHT22;59616;52.170;5.386;2022-08-19T01:13:48;18.80;80.50
70801;DHT22;59616;52.170;5.386;2022-08-19T01:16:18;18.80;81.30
70801;DHT22;59616;52.170;5.386;2022-08-19T01:18:46;18.70;80.60
70801;DHT22;59616;52.170;5.386;2022-08-19T01:21:43;18.70;80.70
70801;DHT22;59616;52.170;5.386;2022-08-19T01:24:11;18.70;80.70
70801;DHT22;59616;52.170;5.386;2022-08-19T01:26:40;18.60;80.80
70801;DHT22;59616;52.170;5.386;2022-08-19T01:29:10;18.60;80.90
70801;DHT22;59616;52.170;5.386;2022-08-19T01:31:37;18.50;81.10
70801;DHT22;59616;52.170;5.386;2022-08-19T01:34:07;18.50;81.10
70801;DHT22;59616;52.170;5.386;2022-08-19T01:36:41;18.50;81.00
70801;DHT22;59616;52.170;5.386;2022-08-19T01:39:12;18.50;80.90
70801;DHT22;59616;52.170;5.386;2022-08-19T01:41:39;18.60;80.80
70801;DHT22;59616;52.170;5.386;2022-08-19T01:44:07;18.50;80.70
70801;DHT22;59616;52.170;5.386;2022-08-19T01:46:46;18.50;80.60
70801;DHT22;59616;52.170;5.386;2022-08-19T01:49:16;18.50;80.50
70801;DHT22;59616;52.170;5.386;2022-08-19T01:51:43;18.60;80.60
70801;DHT22;59616;52.170;5.386;2022-08-19T01:54:12;18.50;80.60
70801;DHT22;59616;52.170;5.386;2022-08-19T01:56:50;18.50;80.70
70801;DHT22;59616;52.170;5.386;2022-08-19T01:59:21;18.40;80.70
70801;DHT22;59616;52.170;5.386;2022-08-19T02:01:49;18.50;80.90
70801;DHT22;59616;52.170;5.386;2022-08-19T02:04:16;18.40;80.80
70801;DHT22;59616;52.170;5.386;2022-08-19T02:06:42;18.40;80.90
70801;DHT22;59616;52.170;5.386;2022-08-19T02:09:09;18.40;81.10
70801;DHT22;59616;52.170;5.386;2022-08-19T02:11:37;18.30;81.20
70801;DHT22;59616;52.170;5.386;2022-08-19T02:14:07;18.30;81.30
70801;DHT22;59616;52.170;5.386;2022-08-19T02:16:35;18.30;81.50
70801;DHT22;59616;52.170;5.386;2022-08-19T02:19:03;18.30;81.50
70801;DHT22;59616;52.170;5.386;2022-08-19T02:21:31;18.30;81.40
70801;DHT22;59616;52.170;5.386;2022-08-19T02:23:58;18.20;81.50
70801;DHT22;59616;52.170;5.386;2022-08-19T02:26:25;18.20;81.40
70801;DHT22;59616;52.170;5.386;2022-08-19T02:28:55;18.20;81.30
70801;DHT22;59616;52.170;5.386;2022-08-19T02:31:24;18.20;81.40
70801;DHT22;59616;52.170;5.386;2022-08-19T02:33:52;18.20;81.40
70801;DHT22;59616;52.170;5.386;2022-08-19T02:36:23;18.10;81.60
70801;DHT22;59616;52.170;5.386;2022-08-19T02:38:51;18.00;81.80
70801;DHT22;59616;52.170;5.386;2022-08-19T02:41:23;18.10;81.80
70801;DHT22;59616;52.170;5.386;2022-08-19T02:43:54;18.10;81.60
70801;DHT22;59616;52.170;5.386;2022-08-19T02:46:41;18.10;81.40
70801;DHT22;59616;52.170;5.386;2022-08-19T02:49:08;18.20;81.30
70801;DHT22;59616;52.170;5.386;2022-08-19T02:51:38;18.10;81.20
70801;DHT22;59616;52.170;5.386;2022-08-19T02:54:06;18.10;81.20
70801;DHT22;59616;52.170;5.386;2022-08-19T02:56:38;18.00;81.30
70801;DHT22;59616;52.170;5.386;2022-08-19T02:59:06;18.00;81.20
70801;DHT22;59616;52.170;5.386;2022-08-19T03:01:39;18.10;81.30
70801;DHT22;59616;52.170;5.386;2022-08-19T03:04:08;18.00;81.30
70801;DHT22;59616;52.170;5.386;2022-08-19T03:06:37;18.00;81.30
70801;DHT22;59616;52.170;5.386;2022-08-19T03:09:04;17.90;81.50
70801;DHT22;59616;52.170;5.386;2022-08-19T03:11:32;17.90;81.70
70801;DHT22;59616;52.170;5.386;2022-08-19T03:14:00;17.80;81.90
70801;DHT22;59616;52.170;5.386;2022-08-19T03:16:30;17.80;82.30
70801;DHT22;59616;52.170;5.386;2022-08-19T03:19:00;17.70;82.20
70801;DHT22;59616;52.170;5.386;2022-08-19T03:21:29;17.70;82.30
70801;DHT22;59616;52.170;5.386;2022-08-19T03:23:58;17.70;82.40
70801;DHT22;59616;52.170;5.386;2022-08-19T03:26:26;17.70;82.20
70801;DHT22;59616;52.170;5.386;2022-08-19T03:28:52;17.80;82.10
70801;DHT22;59616;52.170;5.386;2022-08-19T03:31:26;17.70;82.00
70801;DHT22;59616;52.170;5.386;2022-08-19T03:34:15;17.70;82.10
70801;DHT22;59616;52.170;5.386;2022-08-19T03:36:43;17.60;82.30
70801;DHT22;59616;52.170;5.386;2022-08-19T03:39:11;17.60;82.30
70801;DHT22;59616;52.170;5.386;2022-08-19T03:41:40;17.70;82.30
70801;DHT22;59616;52.170;5.386;2022-08-19T03:44:13;17.70;82.20
70801;DHT22;59616;52.170;5.386;2022-08-19T03:46:45;17.70;82.10
70801;DHT22;59616;52.170;5.386;2022-08-19T03:49:12;17.70;82.00
70801;DHT22;59616;52.170;5.386;2022-08-19T03:51:41;17.70;82.10
70801;DHT22;59616;52.170;5.386;2022-08-19T03:54:11;17.70;82.20
70801;DHT22;59616;52.170;5.386;2022-08-19T03:56:40;17.60;82.20
70801;DHT22;59616;52.170;5.386;2022-08-19T03:59:10;17.70;82.20
70801;DHT22;59616;52.170;5.386;2022-08-19T04:01:37;17.70;82.10
70801;DHT22;59616;52.170;5.386;2022-08-19T04:04:04;17.60;82.20
70801;DHT22;59616;52.170;5.386;2022-08-19T04:06:35;17.60;82.10
70801;DHT22;59616;52.170;5.386;2022-08-19T04:09:08;17.60;82.10
70801;DHT22;59616;52.170;5.386;2022-08-19T04:11:41;17.60;82.10
70801;DHT22;59616;52.170;5.386;2022-08-19T04:14:13;17.60;82.20
70801;DHT22;59616;52.170;5.386;2022-08-19T04:16:40;17.50;82.10
70801;DHT22;59616;52.170;5.386;2022-08-19T04:19:07;17.50;82.20
70801;DHT22;59616;52.170;5.386;2022-08-19T04:21:34;17.50;82.20
70801;DHT22;59616;52.170;5.386;2022-08-19T04:24:01;17.50;82.10
70801;DHT22;59616;52.170;5.386;2022-08-19T04:26:34;17.50;82.00
70801;DHT22;59616;52.170;5.386;2022-08-19T04:29:04;17.50;82.10
70801;DHT22;59616;52.170;5.386;2022-08-19T04:31:37;17.50;82.00
70801;DHT22;59616;52.170;5.386;2022-08-19T04:34:07;17.50;82.00
70801;DHT22;59616;52.170;5.386;2022-08-19T04:36:35;17.40;82.00
70801;DHT22;59616;52.170;5.386;2022-08-19T04:39:07;17.40;82.20
70801;DHT22;59616;52.170;5.386;2022-08-19T04:41:34;17.40;82.20
70801;DHT22;59616;52.170;5.386;2022-08-19T04:44:20;17.30;82.30
70801;DHT22;59616;52.170;5.386;2022-08-19T04:46:48;17.30;82.30
70801;DHT22;59616;52.170;5.386;2022-08-19T04:49:22;17.30;82.40
70801;DHT22;59616;52.170;5.386;2022-08-19T04:51:50;17.30;82.40
70801;DHT22;59616;52.170;5.386;2022-08-19T04:54:18;17.30;82.30
70801;DHT22;59616;52.170;5.386;2022-08-19T04:57:06;17.30;82.30
70801;DHT22;59616;52.170;5.386;2022-08-19T04:59:34;17.30;82.40
70801;DHT22;59616;52.170;5.386;2022-08-19T05:02:02;17.30;82.40
70801;DHT22;59616;52.170;5.386;2022-08-19T05:04:29;17.20;82.40
70801;DHT22;59616;52.170;5.386;2022-08-19T05:07:00;17.20;82.40
70801;DHT22;59616;52.170;5.386;2022-08-19T05:09:29;17.20;82.40
70801;DHT22;59616;52.170;5.386;2022-08-19T05:12:16;17.20;82.40
70801;DHT22;59616;52.170;5.386;2022-08-19T05:14:44;17.20;82.40
70801;DHT22;59616;52.170;5.386;2022-08-19T05:17:13;17.20;82.50
70801;DHT22;59616;52.170;5.386;2022-08-19T05:19:59;17.20;82.50
70801;DHT22;59616;52.170;5.386;2022-08-19T05:22:45;17.30;82.70
70801;DHT22;59616;52.170;5.386;2022-08-19T05:25:18;17.30;82.40
70801;DHT22;59616;52.170;5.386;2022-08-19T05:27:46;17.30;82.40
70801;DHT22;59616;52.170;5.386;2022-08-19T05:30:13;17.40;82.50
70801;DHT22;59616;52.170;5.386;2022-08-19T05:32:40;17.40;82.50
70801;DHT22;59616;52.170;5.386;2022-08-19T05:35:08;17.50;82.60
70801;DHT22;59616;52.170;5.386;2022-08-19T05:37:35;17.50;82.50
70801;DHT22;59616;52.170;5.386;2022-08-19T05:40:03;17.50;83.50
70801;DHT22;59616;52.170;5.386;2022-08-19T05:42:30;17.60;82.60
70801;DHT22;59616;52.170;5.386;2022-08-19T05:44:57;17.60;82.80
70801;DHT22;59616;52.170;5.386;2022-08-19T05:47:24;17.80;83.30
70801;DHT22;59616;52.170;5.386;2022-08-19T05:49:51;17.90;83.70
70801;DHT22;59616;52.170;5.386;2022-08-19T05:52:19;18.00;83.90
70801;DHT22;59616;52.170;5.386;2022-08-19T05:54:52;18.10;84.00
70801;DHT22;59616;52.170;5.386;2022-08-19T05:57:21;18.30;84.10
70801;DHT22;59616;52.170;5.386;2022-08-19T05:59:48;18.40;84.00
70801;DHT22;59616;52.170;5.386;2022-08-19T06:02:25;18.50;84.10
70801;DHT22;59616;52.170;5.386;2022-08-19T06:04:51;18.50;84.10
70801;DHT22;59616;52.170;5.386;2022-08-19T06:07:18;18.60;84.00
70801;DHT22;59616;52.170;5.386;2022-08-19T06:09:46;18.70;84.00
70801;DHT22;59616;52.170;5.386;2022-08-19T06:12:25;18.80;84.00
70801;DHT22;59616;52.170;5.386;2022-08-19T06:14:55;18.80;83.90
70801;DHT22;59616;52.170;5.386;2022-08-19T06:17:27;18.90;83.90
70801;DHT22;59616;52.170;5.386;2022-08-19T06:19:53;18.90;83.90
70801;DHT22;59616;52.170;5.386;2022-08-19T06:22:20;19.00;83.80
70801;DHT22;59616;52.170;5.386;2022-08-19T06:24:47;19.10;83.80
70801;DHT22;59616;52.170;5.386;2022-08-19T06:27:14;19.10;83.70
70801;DHT22;59616;52.170;5.386;2022-08-19T06:29:42;19.20;83.70
70801;DHT22;59616;52.170;5.386;2022-08-19T06:32:09;19.20;83.70
70801;DHT22;59616;52.170;5.386;2022-08-19T06:34:35;19.30;83.60
70801;DHT22;59616;52.170;5.386;2022-08-19T06:37:03;19.30;83.50
70801;DHT22;59616;52.170;5.386;2022-08-19T06:39:33;19.40;83.40
70801;DHT22;59616;52.170;5.386;2022-08-19T06:42:01;19.50;83.40
70801;DHT22;59616;52.170;5.386;2022-08-19T06:44:30;19.50;83.20
70801;DHT22;59616;52.170;5.386;2022-08-19T06:47:07;19.60;83.30
70801;DHT22;59616;52.170;5.386;2022-08-19T06:49:40;19.70;83.10
70801;DHT22;59616;52.170;5.386;2022-08-19T06:52:08;19.80;82.80
70801;DHT22;59616;52.170;5.386;2022-08-19T06:54:40;20.00;82.40
70801;DHT22;59616;52.170;5.386;2022-08-19T06:57:23;20.10;82.00
70801;DHT22;59616;52.170;5.386;2022-08-19T06:59:50;20.10;81.80
70801;DHT22;59616;52.170;5.386;2022-08-19T07:02:17;20.10;81.70
70801;DHT22;59616;52.170;5.386;2022-08-19T07:04:48;20.20;81.60
70801;DHT22;59616;52.170;5.386;2022-08-19T07:07:19;20.30;81.40
70801;DHT22;59616;52.170;5.386;2022-08-19T07:09:48;20.40;81.10
70801;DHT22;59616;52.170;5.386;2022-08-19T07:12:30;20.60;80.90
70801;DHT22;59616;52.170;5.386;2022-08-19T07:15:04;20.70;80.60
70801;DHT22;59616;52.170;5.386;2022-08-19T07:17:31;20.80;80.30
70801;DHT22;59616;52.170;5.386;2022-08-19T07:20:01;20.90;79.90
70801;DHT22;59616;52.170;5.386;2022-08-19T07:22:34;20.90;79.80
70801;DHT22;59616;52.170;5.386;2022-08-19T07:25:02;21.00;79.60
70801;DHT22;59616;52.170;5.386;2022-08-19T07:27:30;21.00;79.40
70801;DHT22;59616;52.170;5.386;2022-08-19T07:29:59;21.10;79.30
70801;DHT22;59616;52.170;5.386;2022-08-19T07:32:26;21.10;79.20
70801;DHT22;59616;52.170;5.386;2022-08-19T07:34:54;21.20;79.10
70801;DHT22;59616;52.170;5.386;2022-08-19T07:37:23;21.30;78.90
70801;DHT22;59616;52.170;5.386;2022-08-19T07:39:55;21.40;78.40
70801;DHT22;59616;52.170;5.386;2022-08-19T07:42:22;21.40;78.20
70801;DHT22;59616;52.170;5.386;2022-08-19T07:44:48;21.50;78.10
70801;DHT22;59616;52.170;5.386;2022-08-19T07:47:17;21.50;77.80
70801;DHT22;59616;52.170;5.386;2022-08-19T07:50:07;21.60;77.70
70801;DHT22;59616;52.170;5.386;2022-08-19T07:52:36;21.70;77.30
70801;DHT22;59616;52.170;5.386;2022-08-19T07:55:06;21.70;77.30
70801;DHT22;59616;52.170;5.386;2022-08-19T07:57:53;21.80;76.90
70801;DHT22;59616;52.170;5.386;2022-08-19T08:00:20;21.80;76.60
70801;DHT22;59616;52.170;5.386;2022-08-19T08:02:50;22.00;76.70
70801;DHT22;59616;52.170;5.386;2022-08-19T08:05:21;22.00;76.40
70801;DHT22;59616;52.170;5.386;2022-08-19T08:08:09;22.20;76.10
70801;DHT22;59616;52.170;5.386;2022-08-19T08:10:54;22.20;75.90
70801;DHT22;59616;52.170;5.386;2022-08-19T08:13:23;22.20;75.70
70801;DHT22;59616;52.170;5.386;2022-08-19T08:15:50;22.20;75.50
70801;DHT22;59616;52.170;5.386;2022-08-19T08:18:20;22.20;75.10
70801;DHT22;59616;52.170;5.386;2022-08-19T08:20:47;22.20;75.20
70801;DHT22;59616;52.170;5.386;2022-08-19T08:23:14;22.20;75.10
70801;DHT22;59616;52.170;5.386;2022-08-19T08:25:55;22.20;75.00
70801;DHT22;59616;52.170;5.386;2022-08-19T08:28:24;22.40;75.00
70801;DHT22;59616;52.170;5.386;2022-08-19T08:30:51;22.50;74.80
70801;DHT22;59616;52.170;5.386;2022-08-19T08:33:21;22.70;74.10
70801;DHT22;59616;52.170;5.386;2022-08-19T08:36:08;22.70;73.70
70801;DHT22;59616;52.170;5.386;2022-08-19T08:38:35;22.70;73.70
70801;DHT22;59616;52.170;5.386;2022-08-19T08:43:59;22.90;73.20
70801;DHT22;59616;52.170;5.386;2022-08-19T08:46:36;23.00;72.90
70801;DHT22;59616;52.170;5.386;2022-08-19T08:49:25;23.10;72.60
70801;DHT22;59616;52.170;5.386;2022-08-19T08:52:10;23.20;72.00
70801;DHT22;59616;52.170;5.386;2022-08-19T08:54:44;23.30;71.70
70801;DHT22;59616;52.170;5.386;2022-08-19T08:57:49;23.40;71.90
70801;DHT22;59616;52.170;5.386;2022-08-19T09:00:24;23.50;71.10
70801;DHT22;59616;52.170;5.386;2022-08-19T09:02:56;23.70;70.90
70801;DHT22;59616;52.170;5.386;2022-08-19T09:05:42;23.90;70.20
70801;DHT22;59616;52.170;5.386;2022-08-19T09:11:19;24.00;69.30
70801;DHT22;59616;52.170;5.386;2022-08-19T09:17:02;23.90;69.00
70801;DHT22;59616;52.170;5.386;2022-08-19T09:19:30;23.80;69.20
70801;DHT22;59616;52.170;5.386;2022-08-19T09:21:58;23.70;69.40
70801;DHT22;59616;52.170;5.386;2022-08-19T09:24:27;23.80;69.70
70801;DHT22;59616;52.170;5.386;2022-08-19T09:26:56;24.20;69.10
70801;DHT22;59616;52.170;5.386;2022-08-19T09:29:23;24.70;68.40
70801;DHT22;59616;52.170;5.386;2022-08-19T09:31:51;25.00;67.10
70801;DHT22;59616;52.170;5.386;2022-08-19T09:34:17;25.20;66.40
70801;DHT22;59616;52.170;5.386;2022-08-19T09:36:48;25.50;66.80
70801;DHT22;59616;52.170;5.386;2022-08-19T09:39:20;25.90;65.10
70801;DHT22;59616;52.170;5.386;2022-08-19T09:41:47;26.20;64.30
70801;DHT22;59616;52.170;5.386;2022-08-19T09:44:14;26.50;63.10
70801;DHT22;59616;52.170;5.386;2022-08-19T09:46:41;26.50;62.60
70801;DHT22;59616;52.170;5.386;2022-08-19T09:49:08;26.30;63.10
70801;DHT22;59616;52.170;5.386;2022-08-19T09:51:35;26.20;63.40
70801;DHT22;59616;52.170;5.386;2022-08-19T09:54:03;26.00;63.20
70801;DHT22;59616;52.170;5.386;2022-08-19T09:56:31;25.70;63.30
70801;DHT22;59616;52.170;5.386;2022-08-19T09:59:00;25.30;63.70
70801;DHT22;59616;52.170;5.386;2022-08-19T10:01:30;25.10;64.00
70801;DHT22;59616;52.170;5.386;2022-08-19T10:03:58;25.00;64.60
70801;DHT22;59616;52.170;5.386;2022-08-19T10:06:28;25.10;64.70
70801;DHT22;59616;52.170;5.386;2022-08-19T10:09:12;25.30;64.40
70801;DHT22;59616;52.170;5.386;2022-08-19T10:11:41;25.60;63.80
70801;DHT22;59616;52.170;5.386;2022-08-19T10:14:19;25.50;63.40
70801;DHT22;59616;52.170;5.386;2022-08-19T10:16:48;25.50;63.30
70801;DHT22;59616;52.170;5.386;2022-08-19T10:19:15;25.40;63.50
70801;DHT22;59616;52.170;5.386;2022-08-19T10:21:52;25.60;63.70
70801;DHT22;59616;52.170;5.386;2022-08-19T10:24:18;26.00;62.70
70801;DHT22;59616;52.170;5.386;2022-08-19T10:26:46;26.10;62.50
70801;DHT22;59616;52.170;5.386;2022-08-19T10:29:22;26.20;62.60
70801;DHT22;59616;52.170;5.386;2022-08-19T10:32:04;26.50;61.80
70801;DHT22;59616;52.170;5.386;2022-08-19T10:34:39;26.70;61.00
70801;DHT22;59616;52.170;5.386;2022-08-19T10:37:15;26.60;60.80
70801;DHT22;59616;52.170;5.386;2022-08-19T10:39:54;26.40;62.00
70801;DHT22;59616;52.170;5.386;2022-08-19T10:42:21;26.10;61.20
70801;DHT22;59616;52.170;5.386;2022-08-19T10:44:48;25.90;62.10
70801;DHT22;59616;52.170;5.386;2022-08-19T10:47:17;26.10;62.20
70801;DHT22;59616;52.170;5.386;2022-08-19T10:49:54;26.30;61.40
70801;DHT22;59616;52.170;5.386;2022-08-19T10:52:45;26.50;61.20
70801;DHT22;59616;52.170;5.386;2022-08-19T10:55:17;26.40;61.50
70801;DHT22;59616;52.170;5.386;2022-08-19T10:58:04;26.30;61.50
70801;DHT22;59616;52.170;5.386;2022-08-19T11:00:31;26.20;61.90
70801;DHT22;59616;52.170;5.386;2022-08-19T11:02:58;26.10;61.90
70801;DHT22;59616;52.170;5.386;2022-08-19T11:05:24;26.10;62.10
70801;DHT22;59616;52.170;5.386;2022-08-19T11:07:51;26.20;62.50
70801;DHT22;59616;52.170;5.386;2022-08-19T11:10:19;26.30;62.30
70801;DHT22;59616;52.170;5.386;2022-08-19T11:12:48;26.50;62.20
70801;DHT22;59616;52.170;5.386;2022-08-19T11:15:15;26.40;61.80
70801;DHT22;59616;52.170;5.386;2022-08-19T11:17:42;26.40;62.00
70801;DHT22;59616;52.170;5.386;2022-08-19T11:20:12;26.60;62.00
70801;DHT22;59616;52.170;5.386;2022-08-19T11:22:40;26.90;61.70
70801;DHT22;59616;52.170;5.386;2022-08-19T11:25:09;27.10;61.10
70801;DHT22;59616;52.170;5.386;2022-08-19T11:27:38;27.30;61.00
70801;DHT22;59616;52.170;5.386;2022-08-19T11:30:06;27.50;60.70
70801;DHT22;59616;52.170;5.386;2022-08-19T11:32:38;27.70;60.00
70801;DHT22;59616;52.170;5.386;2022-08-19T11:35:05;27.60;59.50
70801;DHT22;59616;52.170;5.386;2022-08-19T11:37:33;27.50;60.00
70801;DHT22;59616;52.170;5.386;2022-08-19T11:40:05;27.50;60.00
70801;DHT22;59616;52.170;5.386;2022-08-19T11:42:32;27.50;60.50
70801;DHT22;59616;52.170;5.386;2022-08-19T11:45:18;27.50;60.40
70801;DHT22;59616;52.170;5.386;2022-08-19T11:47:45;27.50;60.40
70801;DHT22;59616;52.170;5.386;2022-08-19T11:50:14;27.50;60.30
70801;DHT22;59616;52.170;5.386;2022-08-19T11:52:40;27.60;60.50
70801;DHT22;59616;52.170;5.386;2022-08-19T11:55:08;28.00;60.20
70801;DHT22;59616;52.170;5.386;2022-08-19T11:57:35;28.10;59.40
70801;DHT22;59616;52.170;5.386;2022-08-19T12:00:03;28.00;59.40
70801;DHT22;59616;52.170;5.386;2022-08-19T12:02:31;27.90;59.20
70801;DHT22;59616;52.170;5.386;2022-08-19T12:04:58;27.70;59.50
70801;DHT22;59616;52.170;5.386;2022-08-19T12:07:25;27.60;60.20
70801;DHT22;59616;52.170;5.386;2022-08-19T12:09:51;27.40;60.00
70801;DHT22;59616;52.170;5.386;2022-08-19T12:12:20;27.00;60.50
70801;DHT22;59616;52.170;5.386;2022-08-19T12:14:48;26.80;61.20
70801;DHT22;59616;52.170;5.386;2022-08-19T12:17:17;26.60;61.60
70801;DHT22;59616;52.170;5.386;2022-08-19T12:19:43;26.30;62.20
70801;DHT22;59616;52.170;5.386;2022-08-19T12:22:10;26.00;62.60
70801;DHT22;59616;52.170;5.386;2022-08-19T12:24:37;25.90;63.20
70801;DHT22;59616;52.170;5.386;2022-08-19T12:27:04;25.80;63.70
70801;DHT22;59616;52.170;5.386;2022-08-19T12:29:35;25.70;63.60
70801;DHT22;59616;52.170;5.386;2022-08-19T12:32:03;25.60;63.70
70801;DHT22;59616;52.170;5.386;2022-08-19T12:34:31;25.60;63.80
70801;DHT22;59616;52.170;5.386;2022-08-19T12:37:01;25.50;64.10
70801;DHT22;59616;52.170;5.386;2022-08-19T12:39:28;25.30;64.90
70801;DHT22;59616;52.170;5.386;2022-08-19T12:41:56;25.10;65.80
70801;DHT22;59616;52.170;5.386;2022-08-19T12:44:24;24.90;66.70
70801;DHT22;59616;52.170;5.386;2022-08-19T12:46:55;24.80;67.50
70801;DHT22;59616;52.170;5.386;2022-08-19T12:49:24;24.70;67.90
70801;DHT22;59616;52.170;5.386;2022-08-19T12:52:11;24.70;68.10
70801;DHT22;59616;52.170;5.386;2022-08-19T12:54:42;24.70;67.90
70801;DHT22;59616;52.170;5.386;2022-08-19T12:57:10;24.90;67.90
70801;DHT22;59616;52.170;5.386;2022-08-19T12:59:38;25.20;67.60
70801;DHT22;59616;52.170;5.386;2022-08-19T13:02:06;25.60;67.00
70801;DHT22;59616;52.170;5.386;2022-08-19T13:04:34;25.90;65.90
70801;DHT22;59616;52.170;5.386;2022-08-19T13:07:03;26.10;65.20
70801;DHT22;59616;52.170;5.386;2022-08-19T13:09:30;26.00;65.20
70801;DHT22;59616;52.170;5.386;2022-08-19T13:11:57;25.90;65.20
70801;DHT22;59616;52.170;5.386;2022-08-19T13:14:23;25.60;65.50
70801;DHT22;59616;52.170;5.386;2022-08-19T13:16:52;25.50;66.50
70801;DHT22;59616;52.170;5.386;2022-08-19T13:19:19;25.30;67.20
70801;DHT22;59616;52.170;5.386;2022-08-19T13:21:50;25.20;67.90
70801;DHT22;59616;52.170;5.386;2022-08-19T13:24:25;25.10;68.70
70801;DHT22;59616;52.170;5.386;2022-08-19T13:27:00;25.00;69.70
70801;DHT22;59616;52.170;5.386;2022-08-19T13:29:27;24.90;70.00
70801;DHT22;59616;52.170;5.386;2022-08-19T13:32:12;24.80;70.10
70801;DHT22;59616;52.170;5.386;2022-08-19T13:34:58;24.60;70.00
70801;DHT22;59616;52.170;5.386;2022-08-19T13:37:25;24.60;70.30
70801;DHT22;59616;52.170;5.386;2022-08-19T13:40:18;24.50;70.60
70801;DHT22;59616;52.170;5.386;2022-08-19T13:42:48;24.40;71.30
70801;DHT22;59616;52.170;5.386;2022-08-19T13:45:17;24.40;71.60
70801;DHT22;59616;52.170;5.386;2022-08-19T13:47:48;24.40;71.50
70801;DHT22;59616;52.170;5.386;2022-08-19T13:50:18;24.50;71.70
70801;DHT22;59616;52.170;5.386;2022-08-19T13:52:45;24.50;71.70
70801;DHT22;59616;52.170;5.386;2022-08-19T13:55:14;24.60;72.80
70801;DHT22;59616;52.170;5.386;2022-08-19T13:57:55;24.50;71.70
70801;DHT22;59616;52.170;5.386;2022-08-19T14:00:23;24.50;71.70
70801;DHT22;59616;52.170;5.386;2022-08-19T14:02:54;24.40;71.90
70801;DHT22;59616;52.170;5.386;2022-08-19T14:05:22;24.40;72.00
70801;DHT22;59616;52.170;5.386;2022-08-19T14:07:50;24.30;72.40
70801;DHT22;59616;52.170;5.386;2022-08-19T14:10:17;24.40;72.50
70801;DHT22;59616;52.170;5.386;2022-08-19T14:12:45;24.40;72.50
70801;DHT22;59616;52.170;5.386;2022-08-19T14:15:13;24.40;72.80
70801;DHT22;59616;52.170;5.386;2022-08-19T14:17:44;24.50;73.00
70801;DHT22;59616;52.170;5.386;2022-08-19T14:20:13;24.60;73.20
70801;DHT22;59616;52.170;5.386;2022-08-19T14:22:45;24.60;73.20
70801;DHT22;59616;52.170;5.386;2022-08-19T14:25:16;24.70;72.70
70801;DHT22;59616;52.170;5.386;2022-08-19T14:27:43;24.80;72.30
70801;DHT22;59616;52.170;5.386;2022-08-19T14:30:13;24.60;72.30
70801;DHT22;59616;52.170;5.386;2022-08-19T14:32:40;24.60;72.70
70801;DHT22;59616;52.170;5.386;2022-08-19T14:35:10;24.40;72.70
70801;DHT22;59616;52.170;5.386;2022-08-19T14:37:39;24.40;72.90
70801;DHT22;59616;52.170;5.386;2022-08-19T14:40:13;24.40;73.00
70801;DHT22;59616;52.170;5.386;2022-08-19T14:42:41;24.50;72.90
70801;DHT22;59616;52.170;5.386;2022-08-19T14:45:09;24.60;72.70
70801;DHT22;59616;52.170;5.386;2022-08-19T14:47:37;24.60;72.60
70801;DHT22;59616;52.170;5.386;2022-08-19T14:50:08;24.60;72.50
70801;DHT22;59616;52.170;5.386;2022-08-19T14:52:43;24.50;72.60
70801;DHT22;59616;52.170;5.386;2022-08-19T14:55:10;24.40;72.60
70801;DHT22;59616;52.170;5.386;2022-08-19T14:57:37;24.30;72.90
70801;DHT22;59616;52.170;5.386;2022-08-19T15:00:04;24.30;73.20
70801;DHT22;59616;52.170;5.386;2022-08-19T15:02:31;24.40;73.40
70801;DHT22;59616;52.170;5.386;2022-08-19T15:05:01;24.50;73.30
70801;DHT22;59616;52.170;5.386;2022-08-19T15:07:28;24.60;73.30
70801;DHT22;59616;52.170;5.386;2022-08-19T15:09:56;24.70;73.10
70801;DHT22;59616;52.170;5.386;2022-08-19T15:12:23;24.90;72.90
70801;DHT22;59616;52.170;5.386;2022-08-19T15:14:51;25.00;72.40
70801;DHT22;59616;52.170;5.386;2022-08-19T15:17:22;25.00;73.00
70801;DHT22;59616;52.170;5.386;2022-08-19T15:20:10;25.00;72.10
70801;DHT22;59616;52.170;5.386;2022-08-19T15:22:39;25.20;72.10
70801;DHT22;59616;52.170;5.386;2022-08-19T15:25:09;25.20;71.90
70801;DHT22;59616;52.170;5.386;2022-08-19T15:27:38;25.30;71.70
70801;DHT22;59616;52.170;5.386;2022-08-19T15:30:07;25.40;71.70
70801;DHT22;59616;52.170;5.386;2022-08-19T15:32:35;25.60;71.40
70801;DHT22;59616;52.170;5.386;2022-08-19T15:35:03;25.90;70.90
70801;DHT22;59616;52.170;5.386;2022-08-19T15:37:30;26.00;70.50
70801;DHT22;59616;52.170;5.386;2022-08-19T15:40:04;26.10;70.30
70801;DHT22;59616;52.170;5.386;2022-08-19T15:42:32;26.10;69.70
70801;DHT22;59616;52.170;5.386;2022-08-19T15:44:59;26.10;69.40
70801;DHT22;59616;52.170;5.386;2022-08-19T15:47:30;25.90;69.50
70801;DHT22;59616;52.170;5.386;2022-08-19T15:50:08;25.70;70.00
70801;DHT22;59616;52.170;5.386;2022-08-19T15:52:43;25.50;70.60
70801;DHT22;59616;52.170;5.386;2022-08-19T15:55:17;25.30;71.10
70801;DHT22;59616;52.170;5.386;2022-08-19T15:58:10;25.00;71.60
70801;DHT22;59616;52.170;5.386;2022-08-19T16:01:02;24.90;72.20